createdAt,value
2019-03-04T00:01:11.010Z,2.90
2019-03-04T00:04:00.217Z,2.93
2019-03-04T00:06:48.383Z,3.03
2019-03-04T00:09:36.161Z,3.00
2019-03-04T00:12:23.673Z,3.00
2019-03-04T00:15:11.862Z,2.90
2019-03-04T00:17:59.873Z,3.37
2019-03-04T00:20:48.347Z,2.93
2019-03-04T00:23:36.415Z,3.00
2019-03-04T00:26:24.960Z,3.40
2019-03-04T00:29:13.251Z,2.97
2019-03-04T00:32:01.259Z,3.00
2019-03-04T00:34:49.212Z,3.20
2019-03-04T00:37:37.377Z,3.47
2019-03-04T00:40:25.580Z,3.10
2019-03-04T00:43:13.582Z,3.30
2019-03-04T00:46:01.911Z,3.10
2019-03-04T00:48:49.495Z,3.03
2019-03-04T00:51:37.790Z,3.20
2019-03-04T00:54:26.192Z,3.00
2019-03-04T00:57:14.650Z,3.60
2019-03-04T01:00:02.767Z,3.17
2019-03-04T01:02:50.464Z,2.70
2019-03-04T01:05:38.835Z,3.07
2019-03-04T01:08:28.113Z,3.30
2019-03-04T01:11:16.391Z,3.63
2019-03-04T01:14:06.475Z,3.33
2019-03-04T01:16:55.087Z,3.50
2019-03-04T01:19:43.289Z,2.77
2019-03-04T01:22:31.471Z,3.20
2019-03-04T01:25:20.012Z,2.40
2019-03-04T01:28:08.324Z,2.70
2019-03-04T01:30:56.519Z,3.20
2019-03-04T01:33:44.524Z,3.77
2019-03-04T01:36:32.943Z,2.30
2019-03-04T01:39:20.739Z,2.83
2019-03-04T01:42:09.019Z,2.30
2019-03-04T01:44:57.459Z,3.30
2019-03-04T01:47:45.286Z,2.77
2019-03-04T01:50:33.563Z,2.70
2019-03-04T01:53:21.556Z,2.70
2019-03-04T01:56:09.651Z,2.47
2019-03-04T01:58:57.851Z,2.13
2019-03-04T02:01:46.207Z,2.53
2019-03-04T02:04:34.399Z,2.67
2019-03-04T02:07:21.992Z,2.60
2019-03-04T02:10:12.452Z,2.10
2019-03-04T02:13:00.968Z,2.53
2019-03-04T02:15:48.660Z,2.03
2019-03-04T02:18:36.624Z,2.03
2019-03-04T02:21:24.479Z,1.80
2019-03-04T02:24:24.000Z,1.73
2019-03-04T02:27:12.402Z,1.80
2019-03-04T02:30:00.385Z,2.30
2019-03-04T02:32:48.868Z,1.63
2019-03-04T02:35:37.435Z,1.80
2019-03-04T02:38:25.871Z,2.17
2019-03-04T02:41:14.328Z,1.70
2019-03-04T02:44:02.886Z,1.83
2019-03-04T02:46:51.691Z,2.00
2019-03-04T02:49:40.199Z,1.60
2019-03-04T02:52:28.707Z,1.57
2019-03-04T02:55:17.080Z,1.87
2019-03-04T02:58:05.560Z,1.30
2019-03-04T03:00:53.777Z,1.10
2019-03-04T03:03:42.069Z,1.90
2019-03-04T03:06:29.984Z,1.23
2019-03-04T03:09:17.491Z,2.13
2019-03-04T03:12:05.847Z,1.40
2019-03-04T03:14:54.316Z,1.30
2019-03-04T03:17:42.910Z,1.40
2019-03-04T03:20:31.425Z,1.27
2019-03-04T03:23:20.057Z,1.43
2019-03-04T03:26:08.423Z,1.37
2019-03-04T03:28:56.944Z,1.20
2019-03-04T03:31:45.227Z,1.20
2019-03-04T03:34:33.441Z,1.50
2019-03-04T03:37:21.531Z,1.47
2019-03-04T03:40:11.208Z,1.57
2019-03-04T03:42:59.652Z,1.30
2019-03-04T03:45:48.165Z,1.40
2019-03-04T03:48:35.904Z,1.70
2019-03-04T03:51:24.897Z,1.30
2019-03-04T03:54:13.528Z,1.57
2019-03-04T03:57:01.411Z,1.33
2019-03-04T03:59:49.965Z,1.37
2019-03-04T04:02:38.382Z,1.83
2019-03-04T04:05:25.974Z,1.80
2019-03-04T04:08:14.240Z,1.77
2019-03-04T04:11:02.715Z,1.60
2019-03-04T04:13:51.159Z,2.03
2019-03-04T04:16:39.179Z,1.70
2019-03-04T04:19:27.731Z,1.93
2019-03-04T04:22:16.267Z,1.47
2019-03-04T04:25:04.555Z,2.00
2019-03-04T04:27:53.095Z,1.90
2019-03-04T04:30:40.726Z,1.60
2019-03-04T04:33:29.090Z,1.80
2019-03-04T04:36:17.336Z,1.90
2019-03-04T04:39:07.312Z,2.10
2019-03-04T04:41:55.506Z,1.60
2019-03-04T04:44:43.967Z,1.80
2019-03-04T04:47:31.951Z,1.80
2019-03-04T04:50:19.451Z,1.53
2019-03-04T04:53:07.945Z,1.57
2019-03-04T04:55:56.107Z,1.90
2019-03-04T04:58:44.097Z,1.40
2019-03-04T05:01:32.591Z,1.47
2019-03-04T05:04:20.515Z,1.60
2019-03-04T05:07:08.468Z,1.80
2019-03-04T05:09:56.009Z,1.30
2019-03-04T05:12:44.246Z,1.47
2019-03-04T05:15:32.811Z,1.47
2019-03-04T05:18:20.399Z,1.10
2019-03-04T05:21:08.850Z,2.70
2019-03-04T05:23:56.823Z,1.43
2019-03-04T05:26:45.071Z,1.30
2019-03-04T05:29:33.328Z,1.30
2019-03-04T05:32:21.647Z,1.10
2019-03-04T05:35:10.076Z,1.53
2019-03-04T05:37:58.163Z,1.33
2019-03-04T05:40:46.193Z,1.13
2019-03-04T05:43:35.058Z,1.40
2019-03-04T05:46:22.830Z,1.23
2019-03-04T05:49:10.756Z,1.13
2019-03-04T05:51:59.126Z,1.20
2019-03-04T05:54:47.215Z,1.47
2019-03-04T05:57:35.639Z,1.23
2019-03-04T06:00:24.912Z,1.30
2019-03-04T06:03:13.497Z,1.20
2019-03-04T06:06:01.939Z,1.60
2019-03-04T06:08:50.182Z,1.83
2019-03-04T06:11:38.714Z,1.50
2019-03-04T06:14:26.712Z,1.37
2019-03-04T06:17:15.179Z,1.50
2019-03-04T06:20:03.928Z,1.30
2019-03-04T06:22:52.759Z,1.60
2019-03-04T06:25:40.524Z,1.63
2019-03-04T06:28:28.419Z,1.20
2019-03-04T06:31:16.647Z,1.60
2019-03-04T06:34:05.511Z,1.93
2019-03-04T06:36:53.267Z,2.40
2019-03-04T06:39:41.714Z,1.50
2019-03-04T06:42:30.182Z,1.50
2019-03-04T06:45:18.703Z,1.57
2019-03-04T06:48:06.959Z,3.30
2019-03-04T06:50:55.259Z,2.67
2019-03-04T06:53:55.935Z,1.20
2019-03-04T06:57:00.061Z,2.00
2019-03-04T07:00:35.161Z,2.23
2019-03-04T07:03:44.559Z,3.03
2019-03-04T07:06:32.931Z,3.83
2019-03-04T07:09:21.179Z,1.13
2019-03-04T07:12:09.131Z,1.10
2019-03-04T07:14:57.226Z,0.80
2019-03-04T07:17:45.251Z,1.20
2019-03-04T07:20:33.852Z,0.80
2019-03-04T07:23:22.131Z,0.90
2019-03-04T07:26:09.718Z,1.23
2019-03-04T07:28:57.630Z,1.30
2019-03-04T07:31:45.090Z,0.73
2019-03-04T07:34:34.028Z,1.10
2019-03-04T07:37:22.682Z,1.70
2019-03-04T07:40:11.176Z,1.40
2019-03-04T07:42:59.110Z,1.20
2019-03-04T07:45:47.399Z,1.60
2019-03-04T07:48:35.387Z,1.50
2019-03-04T07:51:23.912Z,1.90
2019-03-04T07:54:12.503Z,1.73
2019-03-04T07:57:00.694Z,3.20
2019-03-04T07:59:48.694Z,1.27
2019-03-04T08:02:36.982Z,1.43
2019-03-04T08:05:25.306Z,1.50
2019-03-04T08:08:13.448Z,1.20
2019-03-04T08:11:26.605Z,1.33
2019-03-04T08:14:14.947Z,1.30
2019-03-04T08:17:02.863Z,2.57
2019-03-04T08:19:50.855Z,1.17
2019-03-04T08:22:39.026Z,1.20
2019-03-04T08:25:27.551Z,1.57
2019-03-04T08:28:16.111Z,2.30
2019-03-04T08:31:04.395Z,2.47
2019-03-04T08:33:52.526Z,1.60
2019-03-04T08:36:40.836Z,2.40
2019-03-04T08:39:29.151Z,1.83
2019-03-04T08:42:17.506Z,1.77
2019-03-04T08:45:05.999Z,1.60
2019-03-04T08:47:53.995Z,2.10
2019-03-04T08:50:42.186Z,1.40
2019-03-04T08:53:31.059Z,2.43
2019-03-04T08:56:19.291Z,1.43
2019-03-04T08:59:07.881Z,1.00
2019-03-04T09:01:56.255Z,1.93
2019-03-04T09:04:44.206Z,2.40
2019-03-04T09:07:32.387Z,1.90
2019-03-04T09:10:27.947Z,1.73
2019-03-04T09:13:15.543Z,1.87
2019-03-04T09:16:04.030Z,1.17
2019-03-04T09:18:52.182Z,1.40
2019-03-04T09:21:40.599Z,1.37
2019-03-04T09:24:29.026Z,2.60
2019-03-04T09:27:17.387Z,1.17
2019-03-04T09:30:07.090Z,1.67
2019-03-04T09:32:54.799Z,1.30
2019-03-04T09:35:42.991Z,3.13
2019-03-04T09:38:31.206Z,1.47
2019-03-04T09:41:19.331Z,1.90
2019-03-04T09:44:07.500Z,1.27
2019-03-04T09:46:55.751Z,1.87
2019-03-04T09:49:44.064Z,1.50
2019-03-04T09:52:32.635Z,1.73
2019-03-04T09:55:21.202Z,1.50
2019-03-04T09:58:09.000Z,1.10
2019-03-04T10:01:18.682Z,2.13
2019-03-04T10:04:36.211Z,1.50
2019-03-04T10:07:37.040Z,1.40
2019-03-04T10:11:15.634Z,3.27
2019-03-04T10:14:26.559Z,1.90
2019-03-04T10:17:45.462Z,1.57
2019-03-04T10:21:19.075Z,2.70
2019-03-04T10:24:35.786Z,4.00
2019-03-04T10:28:06.491Z,2.17
2019-03-04T10:31:41.811Z,3.90
2019-03-04T10:34:56.320Z,2.40
2019-03-04T10:38:05.934Z,2.10
2019-03-04T10:41:11.312Z,2.27
2019-03-04T10:44:10.299Z,2.87
2019-03-04T10:46:59.263Z,2.13
2019-03-04T10:49:47.583Z,1.90
2019-03-04T10:52:35.315Z,2.20
2019-03-04T10:55:23.715Z,1.93
2019-03-04T10:58:11.975Z,1.50
2019-03-04T11:01:00.259Z,1.70
2019-03-04T11:03:48.632Z,2.10
2019-03-04T11:06:37.138Z,2.10
2019-03-04T11:09:24.749Z,2.33
2019-03-04T11:12:14.144Z,1.90
2019-03-04T11:15:02.518Z,1.83
2019-03-04T11:17:50.763Z,2.10
2019-03-04T11:20:39.299Z,2.60
2019-03-04T11:23:28.770Z,1.47
2019-03-04T11:26:16.975Z,1.43
2019-03-04T11:29:07.734Z,1.70
2019-03-04T11:31:56.230Z,2.33
2019-03-04T11:34:44.399Z,3.63
2019-03-04T11:37:32.828Z,3.37
2019-03-04T11:40:28.963Z,5.00
2019-03-04T11:43:17.153Z,3.53
2019-03-04T11:46:05.767Z,1.80
2019-03-04T11:48:54.035Z,1.93
2019-03-04T11:51:42.397Z,2.20
2019-03-04T11:54:30.262Z,3.00
2019-03-04T11:57:18.574Z,2.57
2019-03-04T12:00:23.098Z,1.90
2019-03-04T12:03:11.026Z,2.30
2019-03-04T12:05:59.263Z,2.43
2019-03-04T12:08:46.808Z,3.40
2019-03-04T12:11:38.191Z,2.83
2019-03-04T12:14:24.806Z,3.67
2019-03-04T12:17:13.323Z,2.60
2019-03-04T12:20:00.913Z,3.50
2019-03-04T12:22:49.543Z,2.50
2019-03-04T12:25:38.090Z,2.80
2019-03-04T12:28:26.230Z,2.33
2019-03-04T12:31:14.773Z,2.57
2019-03-04T12:34:03.463Z,3.23
2019-03-04T12:36:51.903Z,2.13
2019-03-04T12:39:40.219Z,2.60
2019-03-04T12:42:28.712Z,2.60
2019-03-04T12:45:17.322Z,3.37
2019-03-04T12:48:05.673Z,2.53
2019-03-04T12:50:53.935Z,2.63
2019-03-04T12:53:42.162Z,1.83
2019-03-04T12:56:29.914Z,2.20
2019-03-04T12:59:18.287Z,1.90
2019-03-04T13:02:06.866Z,1.97
2019-03-04T13:04:55.388Z,1.90
2019-03-04T13:07:44.175Z,2.20
2019-03-04T13:10:31.973Z,2.00
2019-03-04T13:13:19.871Z,2.80
2019-03-04T13:16:08.482Z,2.97
2019-03-04T13:18:56.824Z,2.90
2019-03-04T13:21:45.263Z,3.30
2019-03-04T13:24:33.295Z,3.23
2019-03-04T13:27:23.967Z,2.77
2019-03-04T13:30:14.375Z,3.23
2019-03-04T13:33:02.851Z,3.43
2019-03-04T13:35:51.359Z,2.77
2019-03-04T13:38:40.128Z,3.47
2019-03-04T13:41:28.715Z,3.37
2019-03-04T13:44:16.754Z,3.90
2019-03-04T13:47:05.070Z,3.33
2019-03-04T13:49:53.415Z,4.00
2019-03-04T13:52:42.079Z,2.70
2019-03-04T13:55:30.111Z,2.90
2019-03-04T13:58:18.684Z,3.20
2019-03-04T14:01:08.151Z,3.87
2019-03-04T14:03:56.050Z,4.67
2019-03-04T14:06:44.470Z,6.10
2019-03-04T14:09:32.495Z,6.23
2019-03-04T14:12:20.251Z,6.70
2019-03-04T14:15:11.566Z,6.20
2019-03-04T14:18:00.282Z,4.77
2019-03-04T14:20:48.189Z,5.43
2019-03-04T14:23:36.506Z,6.33
2019-03-04T14:26:27.687Z,5.03
2019-03-04T14:29:15.303Z,4.97
2019-03-04T14:32:03.559Z,4.43
2019-03-04T14:34:51.945Z,4.67
2019-03-04T14:37:39.963Z,4.03
2019-03-04T14:40:28.222Z,3.13
2019-03-04T14:43:16.449Z,3.83
2019-03-04T14:46:04.814Z,4.20
2019-03-04T14:48:52.726Z,3.50
2019-03-04T14:51:40.947Z,4.57
2019-03-04T14:54:29.058Z,4.70
2019-03-04T14:57:17.190Z,4.37
2019-03-04T15:00:07.707Z,3.83
2019-03-04T15:02:55.753Z,5.70
2019-03-04T15:05:43.955Z,4.10
2019-03-04T15:08:31.587Z,3.57
2019-03-04T15:11:19.819Z,4.47
2019-03-04T15:14:08.366Z,4.93
2019-03-04T15:17:03.408Z,3.07
2019-03-04T15:19:46.354Z,3.23
2019-03-04T15:22:35.468Z,1.93
2019-03-04T15:25:27.177Z,2.10
2019-03-04T15:28:17.150Z,2.20
2019-03-04T15:31:05.615Z,1.90
2019-03-04T15:33:54.342Z,2.50
2019-03-04T15:36:41.890Z,1.70
2019-03-04T15:39:30.295Z,2.00
2019-03-04T15:42:18.819Z,2.10
2019-03-04T15:45:08.947Z,2.40
2019-03-04T15:47:57.147Z,2.20
2019-03-04T15:50:45.683Z,2.90
2019-03-04T15:53:33.675Z,2.77
2019-03-04T15:56:22.027Z,2.23
2019-03-04T15:59:10.234Z,2.27
2019-03-04T16:02:04.550Z,1.80
2019-03-04T16:04:52.978Z,2.50
2019-03-04T16:07:40.670Z,2.57
2019-03-04T16:10:29.048Z,3.00
2019-03-04T16:13:17.802Z,3.20
2019-03-04T16:16:06.231Z,2.43
2019-03-04T16:18:54.158Z,2.37
2019-03-04T16:21:42.520Z,1.87
2019-03-04T16:24:31.015Z,2.07
2019-03-04T16:27:19.468Z,3.03
2019-03-04T16:30:10.611Z,2.53
2019-03-04T16:32:58.918Z,3.27
2019-03-04T16:35:46.683Z,2.20
2019-03-04T16:38:35.044Z,2.27
2019-03-04T16:41:23.667Z,2.50
2019-03-04T16:44:11.866Z,2.27
2019-03-04T16:47:00.283Z,2.70
2019-03-04T16:49:48.770Z,2.40
2019-03-04T16:52:36.922Z,2.77
2019-03-04T16:55:25.209Z,2.60
2019-03-04T16:58:13.208Z,3.33
2019-03-04T17:01:02.305Z,3.60
2019-03-04T17:03:51.121Z,3.57
2019-03-04T17:06:38.803Z,2.93
2019-03-04T17:09:27.454Z,2.47
2019-03-04T17:12:16.263Z,2.30
2019-03-04T17:15:05.797Z,2.30
2019-03-04T17:17:54.111Z,2.13
2019-03-04T17:20:42.407Z,5.03
2019-03-04T17:23:31.259Z,2.70
2019-03-04T17:26:20.590Z,2.63
2019-03-04T17:29:09.524Z,2.20
2019-03-04T17:31:57.789Z,2.50
2019-03-04T17:34:46.139Z,3.13
2019-03-04T17:37:34.584Z,2.10
2019-03-04T17:40:22.985Z,2.20
2019-03-04T17:43:11.381Z,1.87
2019-03-04T17:46:00.129Z,2.13
2019-03-04T17:48:48.743Z,1.97
2019-03-04T17:51:36.316Z,2.17
2019-03-04T17:54:24.572Z,1.93
2019-03-04T17:57:13.200Z,2.00
2019-03-04T18:00:01.656Z,2.53
2019-03-04T18:02:49.635Z,3.30
2019-03-04T18:05:37.988Z,2.77
2019-03-04T18:08:26.193Z,2.40
2019-03-04T18:11:14.462Z,1.80
2019-03-04T18:14:03.546Z,3.40
2019-03-04T18:16:51.739Z,3.90
2019-03-04T18:19:40.424Z,3.07
2019-03-04T18:22:28.587Z,3.23
2019-03-04T18:25:20.705Z,2.90
2019-03-04T18:28:22.209Z,3.47
2019-03-04T18:31:37.487Z,3.10
2019-03-04T18:35:06.546Z,3.30
2019-03-04T18:38:23.176Z,2.87
2019-03-04T18:41:33.880Z,2.33
2019-03-04T18:45:04.024Z,3.10
2019-03-04T18:48:25.684Z,2.07
2019-03-04T18:51:13.620Z,2.60
2019-03-04T18:54:06.928Z,2.30
2019-03-04T18:56:54.969Z,2.57
2019-03-04T18:59:43.084Z,2.57
2019-03-04T19:02:32.125Z,1.97
2019-03-04T19:05:20.968Z,2.13
2019-03-04T19:08:08.916Z,4.90
2019-03-04T19:10:57.227Z,2.13
2019-03-04T19:13:45.118Z,2.10
2019-03-04T19:16:33.052Z,1.97
2019-03-04T19:19:21.220Z,2.50
2019-03-04T19:22:10.079Z,2.63
2019-03-04T19:24:58.100Z,2.10
2019-03-04T19:27:46.853Z,1.87
2019-03-04T19:30:34.833Z,1.87
2019-03-04T19:33:23.195Z,2.37
2019-03-04T19:36:11.447Z,2.47
2019-03-04T19:38:59.535Z,2.37
2019-03-04T19:41:47.857Z,1.93
2019-03-04T19:44:36.292Z,2.33
2019-03-04T19:47:24.718Z,2.47
2019-03-04T19:50:12.907Z,3.50
2019-03-04T19:53:01.162Z,1.80
2019-03-04T19:55:49.448Z,2.10
2019-03-04T19:58:37.286Z,3.10
2019-03-04T20:01:25.493Z,2.20
2019-03-04T20:04:13.394Z,2.20
2019-03-04T20:07:02.136Z,2.27
2019-03-04T20:09:49.895Z,2.10
2019-03-04T20:12:37.695Z,3.10
2019-03-04T20:15:25.948Z,1.87
2019-03-04T20:18:14.513Z,2.97
2019-03-04T20:21:03.349Z,1.90
2019-03-04T20:23:51.816Z,2.20
2019-03-04T20:26:40.528Z,3.13
2019-03-04T20:29:28.799Z,2.03
2019-03-04T20:32:16.605Z,2.17
2019-03-04T20:35:04.901Z,2.37
2019-03-04T20:37:53.381Z,1.67
2019-03-04T20:40:41.792Z,2.50
2019-03-04T20:43:29.995Z,2.50
2019-03-04T20:46:19.005Z,2.10
2019-03-04T20:49:07.475Z,2.17
2019-03-04T20:51:55.839Z,2.00
2019-03-04T20:54:44.235Z,2.13
2019-03-04T20:57:32.177Z,2.27
2019-03-04T21:00:25.231Z,2.30
2019-03-04T21:03:13.657Z,2.13
2019-03-04T21:06:01.764Z,2.57
2019-03-04T21:08:49.523Z,3.20
2019-03-04T21:11:38.879Z,2.53
2019-03-04T21:14:26.976Z,2.63
2019-03-04T21:17:15.564Z,2.47
2019-03-04T21:20:03.415Z,2.27
2019-03-04T21:22:51.820Z,2.30
2019-03-04T21:25:43.874Z,3.40
2019-03-04T21:28:45.346Z,2.77
2019-03-04T21:31:40.969Z,2.27
2019-03-04T21:35:19.590Z,2.40
2019-03-04T21:38:08.195Z,2.93
2019-03-04T21:41:33.987Z,2.10
2019-03-04T21:44:53.109Z,2.83
2019-03-04T21:47:51.260Z,4.37
2019-03-04T21:50:57.459Z,3.53
2019-03-04T21:53:46.916Z,4.80
2019-03-04T21:57:02.195Z,4.57
2019-03-04T21:59:50.117Z,9.63
2019-03-04T22:02:52.463Z,4.97
2019-03-04T22:05:49.764Z,5.60
2019-03-04T22:08:30.887Z,4.97
2019-03-04T22:11:18.734Z,5.53
2019-03-04T22:14:07.196Z,6.37
2019-03-04T22:16:55.207Z,6.60
2019-03-04T22:19:43.781Z,4.50
2019-03-04T22:22:32.362Z,5.57
2019-03-04T22:25:20.749Z,3.57
2019-03-04T22:28:09.227Z,5.60
2019-03-04T22:30:57.481Z,4.77
2019-03-04T22:33:46.168Z,4.80
2019-03-04T22:36:34.298Z,5.50
2019-03-04T22:39:22.371Z,4.80
2019-03-04T22:42:10.984Z,5.00
2019-03-04T22:44:59.253Z,4.97
2019-03-04T22:47:48.003Z,4.80
2019-03-04T22:50:36.722Z,4.80
2019-03-04T22:53:25.496Z,5.00
2019-03-04T22:56:12.961Z,5.40
2019-03-04T22:59:01.446Z,5.47
2019-03-04T23:01:56.314Z,5.70
2019-03-04T23:04:56.267Z,5.93
2019-03-04T23:07:52.819Z,5.67
2019-03-04T23:10:46.690Z,7.30
2019-03-04T23:13:57.225Z,6.20
2019-03-04T23:16:45.248Z,7.53
2019-03-04T23:19:32.775Z,6.97
2019-03-04T23:22:20.915Z,7.73
2019-03-04T23:25:10.299Z,9.13
2019-03-04T23:27:58.478Z,8.13
2019-03-04T23:30:46.465Z,7.20
2019-03-04T23:33:34.383Z,8.57
2019-03-04T23:36:22.406Z,7.03
2019-03-04T23:39:10.745Z,6.63
2019-03-04T23:41:59.028Z,5.73
2019-03-04T23:44:46.701Z,6.20
2019-03-04T23:47:37.005Z,6.53
2019-03-04T23:50:24.640Z,5.83
2019-03-04T23:53:12.899Z,5.30
2019-03-04T23:56:00.909Z,5.33
2019-03-04T23:58:48.575Z,4.30
